sensor_id;sensor_type;location;lat;lon;timestamp;temperature;humidity
43607;DHT22;29197;44.788;10.366;2022-12-18T00:00:57;9.10;99.90
43607;DHT22;29197;44.788;10.366;2022-12-18T00:03:46;9.10;99.90
43607;DHT22;29197;44.788;10.366;2022-12-18T00:06:36;9.10;99.90
43607;DHT22;29197;44.788;10.366;2022-12-18T00:09:25;9.10;99.90
43607;DHT22;29197;44.788;10.366;2022-12-18T00:12:26;9.10;99.90
43607;DHT22;29197;44.788;10.366;2022-12-18T00:15:18;9.10;99.90
43607;DHT22;29197;44.788;10.366;2022-12-18T00:18:08;9.10;99.90
43607;DHT22;29197;44.788;10.366;2022-12-18T00:21:04;9.10;99.90
43607;DHT22;29197;44.788;10.366;2022-12-18T00:23:53;9.00;99.90
43607;DHT22;29197;44.788;10.366;2022-12-18T00:26:42;9.20;99.90
43607;DHT22;29197;44.788;10.366;2022-12-18T00:29:32;9.20;99.90
43607;DHT22;29197;44.788;10.366;2022-12-18T00:32:22;9.20;99.90
43607;DHT22;29197;44.788;10.366;2022-12-18T00:35:12;9.20;99.90
43607;DHT22;29197;44.788;10.366;2022-12-18T00:38:01;9.10;99.90
43607;DHT22;29197;44.788;10.366;2022-12-18T00:40:50;9.20;99.90
43607;DHT22;29197;44.788;10.366;2022-12-18T00:43:40;9.20;99.90
43607;DHT22;29197;44.788;10.366;2022-12-18T00:46:29;9.20;99.90
43607;DHT22;29197;44.788;10.366;2022-12-18T00:49:21;9.10;99.90
43607;DHT22;29197;44.788;10.366;2022-12-18T00:52:10;9.10;99.90
43607;DHT22;29197;44.788;10.366;2022-12-18T00:54:59;9.10;99.90
43607;DHT22;29197;44.788;10.366;2022-12-18T00:57:52;9.00;99.90
43607;DHT22;29197;44.788;10.366;2022-12-18T01:00:42;9.00;99.90
43607;DHT22;29197;44.788;10.366;2022-12-18T01:03:32;9.00;99.90
43607;DHT22;29197;44.788;10.366;2022-12-18T01:06:23;9.00;99.90
43607;DHT22;29197;44.788;10.366;2022-12-18T01:09:12;8.90;99.90
43607;DHT22;29197;44.788;10.366;2022-12-18T01:12:01;8.90;99.90
43607;DHT22;29197;44.788;10.366;2022-12-18T01:14:50;8.90;99.90
43607;DHT22;29197;44.788;10.366;2022-12-18T01:17:40;8.90;99.90
43607;DHT22;29197;44.788;10.366;2022-12-18T01:20:29;8.80;99.90
43607;DHT22;29197;44.788;10.366;2022-12-18T01:23:20;8.90;99.90
43607;DHT22;29197;44.788;10.366;2022-12-18T01:40:18;9.20;99.90
43607;DHT22;29197;44.788;10.366;2022-12-18T01:43:09;9.00;99.90
43607;DHT22;29197;44.788;10.366;2022-12-18T01:45:59;9.00;99.90
43607;DHT22;29197;44.788;10.366;2022-12-18T01:48:51;9.00;99.90
43607;DHT22;29197;44.788;10.366;2022-12-18T01:51:41;9.00;99.90
43607;DHT22;29197;44.788;10.366;2022-12-18T01:54:30;9.10;99.90
43607;DHT22;29197;44.788;10.366;2022-12-18T01:57:21;9.00;99.90
43607;DHT22;29197;44.788;10.366;2022-12-18T02:00:13;9.00;99.90
43607;DHT22;29197;44.788;10.366;2022-12-18T02:03:02;9.00;99.90
43607;DHT22;29197;44.788;10.366;2022-12-18T02:05:59;9.00;99.90
43607;DHT22;29197;44.788;10.366;2022-12-18T02:08:57;9.00;99.90
43607;DHT22;29197;44.788;10.366;2022-12-18T02:11:52;9.00;99.90
43607;DHT22;29197;44.788;10.366;2022-12-18T02:14:49;9.00;99.90
43607;DHT22;29197;44.788;10.366;2022-12-18T02:17:45;9.00;99.90
43607;DHT22;29197;44.788;10.366;2022-12-18T02:20:39;9.00;99.90
43607;DHT22;29197;44.788;10.366;2022-12-18T02:23:46;9.00;99.90
43607;DHT22;29197;44.788;10.366;2022-12-18T02:26:40;9.00;99.90
43607;DHT22;29197;44.788;10.366;2022-12-18T02:29:34;9.00;99.90
43607;DHT22;29197;44.788;10.366;2022-12-18T02:32:26;9.00;99.90
43607;DHT22;29197;44.788;10.366;2022-12-18T02:35:19;9.00;99.90
43607;DHT22;29197;44.788;10.366;2022-12-18T02:38:09;9.00;99.90
43607;DHT22;29197;44.788;10.366;2022-12-18T02:41:00;9.00;99.90
43607;DHT22;29197;44.788;10.366;2022-12-18T02:43:56;8.90;99.90
43607;DHT22;29197;44.788;10.366;2022-12-18T02:46:49;8.90;99.90
43607;DHT22;29197;44.788;10.366;2022-12-18T02:49:47;8.90;99.90
43607;DHT22;29197;44.788;10.366;2022-12-18T02:52:44;8.90;99.90
43607;DHT22;29197;44.788;10.366;2022-12-18T02:55:46;8.90;99.90
43607;DHT22;29197;44.788;10.366;2022-12-18T02:58:45;8.90;99.90
43607;DHT22;29197;44.788;10.366;2022-12-18T03:01:42;8.90;99.90
43607;DHT22;29197;44.788;10.366;2022-12-18T03:04:40;8.90;99.90
43607;DHT22;29197;44.788;10.366;2022-12-18T03:07:37;8.80;99.90
43607;DHT22;29197;44.788;10.366;2022-12-18T03:10:30;8.80;99.90
43607;DHT22;29197;44.788;10.366;2022-12-18T03:13:23;8.70;99.90
43607;DHT22;29197;44.788;10.366;2022-12-18T03:16:22;8.70;99.90
43607;DHT22;29197;44.788;10.366;2022-12-18T03:19:16;8.70;99.90
43607;DHT22;29197;44.788;10.366;2022-12-18T03:22:07;8.70;99.90
43607;DHT22;29197;44.788;10.366;2022-12-18T03:24:58;8.60;99.90
43607;DHT22;29197;44.788;10.366;2022-12-18T03:27:52;8.60;99.90
43607;DHT22;29197;44.788;10.366;2022-12-18T03:30:49;8.60;99.90
43607;DHT22;29197;44.788;10.366;2022-12-18T03:33:45;8.50;99.90
43607;DHT22;29197;44.788;10.366;2022-12-18T03:36:37;8.50;99.90
43607;DHT22;29197;44.788;10.366;2022-12-18T03:39:26;8.50;99.90
43607;DHT22;29197;44.788;10.366;2022-12-18T03:42:20;8.40;99.90
43607;DHT22;29197;44.788;10.366;2022-12-18T03:45:20;8.40;99.90
43607;DHT22;29197;44.788;10.366;2022-12-18T04:50:44;7.90;99.90
43607;DHT22;29197;44.788;10.366;2022-12-18T04:53:33;7.90;99.90
43607;DHT22;29197;44.788;10.366;2022-12-18T04:56:22;7.80;99.90
43607;DHT22;29197;44.788;10.366;2022-12-18T04:59:10;7.80;99.90
43607;DHT22;29197;44.788;10.366;2022-12-18T05:02:01;7.80;99.90
43607;DHT22;29197;44.788;10.366;2022-12-18T05:04:50;7.80;99.90
43607;DHT22;29197;44.788;10.366;2022-12-18T05:07:40;7.80;99.90
43607;DHT22;29197;44.788;10.366;2022-12-18T08:27:12;8.10;99.90
43607;DHT22;29197;44.788;10.366;2022-12-18T08:30:15;8.10;99.90
43607;DHT22;29197;44.788;10.366;2022-12-18T08:33:05;8.10;99.90
43607;DHT22;29197;44.788;10.366;2022-12-18T08:35:55;8.10;99.90
43607;DHT22;29197;44.788;10.366;2022-12-18T08:38:44;8.10;99.90
43607;DHT22;29197;44.788;10.366;2022-12-18T08:41:33;8.10;99.90
43607;DHT22;29197;44.788;10.366;2022-12-18T08:44:24;8.10;99.90
43607;DHT22;29197;44.788;10.366;2022-12-18T08:47:28;8.10;99.90
43607;DHT22;29197;44.788;10.366;2022-12-18T08:50:19;8.10;99.90
43607;DHT22;29197;44.788;10.366;2022-12-18T08:53:07;8.10;99.90
43607;DHT22;29197;44.788;10.366;2022-12-18T08:55:57;8.10;99.90
43607;DHT22;29197;44.788;10.366;2022-12-18T08:58:46;7.70;99.90
43607;DHT22;29197;44.788;10.366;2022-12-18T09:01:37;7.50;99.90
43607;DHT22;29197;44.788;10.366;2022-12-18T09:04:26;7.50;99.90
43607;DHT22;29197;44.788;10.366;2022-12-18T09:07:16;7.70;99.90
43607;DHT22;29197;44.788;10.366;2022-12-18T09:10:06;7.80;99.90
43607;DHT22;29197;44.788;10.366;2022-12-18T09:12:56;7.90;99.90
43607;DHT22;29197;44.788;10.366;2022-12-18T09:15:46;8.10;99.90
43607;DHT22;29197;44.788;10.366;2022-12-18T09:18:38;8.10;99.90
43607;DHT22;29197;44.788;10.366;2022-12-18T09:21:29;8.20;99.90
43607;DHT22;29197;44.788;10.366;2022-12-18T09:24:23;8.20;99.90
43607;DHT22;29197;44.788;10.366;2022-12-18T09:27:13;8.30;99.90
43607;DHT22;29197;44.788;10.366;2022-12-18T09:30:04;8.30;99.90
43607;DHT22;29197;44.788;10.366;2022-12-18T09:32:54;8.40;99.90
43607;DHT22;29197;44.788;10.366;2022-12-18T09:35:45;8.40;99.90
43607;DHT22;29197;44.788;10.366;2022-12-18T09:38:35;8.30;99.90
43607;DHT22;29197;44.788;10.366;2022-12-18T09:41:42;8.30;99.90
43607;DHT22;29197;44.788;10.366;2022-12-18T09:44:36;8.10;99.90
43607;DHT22;29197;44.788;10.366;2022-12-18T09:47:35;8.10;99.90
43607;DHT22;29197;44.788;10.366;2022-12-18T09:50:29;8.00;99.90
43607;DHT22;29197;44.788;10.366;2022-12-18T09:53:24;7.60;99.90
43607;DHT22;29197;44.788;10.366;2022-12-18T09:56:17;7.40;99.90
43607;DHT22;29197;44.788;10.366;2022-12-18T09:59:21;7.20;99.90
43607;DHT22;29197;44.788;10.366;2022-12-18T10:02:15;7.30;99.90
43607;DHT22;29197;44.788;10.366;2022-12-18T10:05:12;7.50;99.90
43607;DHT22;29197;44.788;10.366;2022-12-18T10:08:07;7.70;99.90
43607;DHT22;29197;44.788;10.366;2022-12-18T10:11:16;7.80;99.90
43607;DHT22;29197;44.788;10.366;2022-12-18T10:14:15;8.10;99.90
43607;DHT22;29197;44.788;10.366;2022-12-18T10:17:14;8.10;99.90
43607;DHT22;29197;44.788;10.366;2022-12-18T10:20:12;8.20;99.90
43607;DHT22;29197;44.788;10.366;2022-12-18T10:23:08;8.40;99.90
43607;DHT22;29197;44.788;10.366;2022-12-18T10:26:02;8.30;99.90
43607;DHT22;29197;44.788;10.366;2022-12-18T10:28:53;8.00;99.90
43607;DHT22;29197;44.788;10.366;2022-12-18T10:31:51;7.80;99.90
43607;DHT22;29197;44.788;10.366;2022-12-18T10:34:41;7.60;99.90
43607;DHT22;29197;44.788;10.366;2022-12-18T10:37:30;7.70;99.90
43607;DHT22;29197;44.788;10.366;2022-12-18T10:40:20;7.90;99.90
43607;DHT22;29197;44.788;10.366;2022-12-18T10:43:13;7.90;99.90
43607;DHT22;29197;44.788;10.366;2022-12-18T10:46:12;8.10;99.90
43607;DHT22;29197;44.788;10.366;2022-12-18T10:49:03;8.20;99.90
43607;DHT22;29197;44.788;10.366;2022-12-18T10:52:11;8.60;99.90
43607;DHT22;29197;44.788;10.366;2022-12-18T10:55:04;8.90;99.90
43607;DHT22;29197;44.788;10.366;2022-12-18T10:57:54;8.90;99.90
43607;DHT22;29197;44.788;10.366;2022-12-18T11:00:44;8.90;99.90
43607;DHT22;29197;44.788;10.366;2022-12-18T11:03:35;8.70;99.90
43607;DHT22;29197;44.788;10.366;2022-12-18T11:06:25;8.70;99.90
43607;DHT22;29197;44.788;10.366;2022-12-18T11:09:20;8.80;99.90
43607;DHT22;29197;44.788;10.366;2022-12-18T11:12:15;8.60;99.90
43607;DHT22;29197;44.788;10.366;2022-12-18T11:15:13;8.70;99.90
43607;DHT22;29197;44.788;10.366;2022-12-18T11:18:14;9.00;99.90
43607;DHT22;29197;44.788;10.366;2022-12-18T11:21:07;9.20;99.90
43607;DHT22;29197;44.788;10.366;2022-12-18T11:23:57;9.20;99.90
43607;DHT22;29197;44.788;10.366;2022-12-18T11:26:46;9.10;99.90
43607;DHT22;29197;44.788;10.366;2022-12-18T11:29:40;8.70;99.90
43607;DHT22;29197;44.788;10.366;2022-12-18T11:32:35;8.90;99.90
43607;DHT22;29197;44.788;10.366;2022-12-18T11:35:35;8.90;99.90
43607;DHT22;29197;44.788;10.366;2022-12-18T11:38:27;8.80;99.90
43607;DHT22;29197;44.788;10.366;2022-12-18T11:41:22;8.80;99.90
43607;DHT22;29197;44.788;10.366;2022-12-18T11:44:40;9.10;99.90
43607;DHT22;29197;44.788;10.366;2022-12-18T11:47:38;8.80;99.90
43607;DHT22;29197;44.788;10.366;2022-12-18T11:50:33;8.80;99.90
43607;DHT22;29197;44.788;10.366;2022-12-18T11:53:30;8.50;99.90
43607;DHT22;29197;44.788;10.366;2022-12-18T11:56:29;8.70;99.90
43607;DHT22;29197;44.788;10.366;2022-12-18T11:59:29;9.20;99.90
43607;DHT22;29197;44.788;10.366;2022-12-18T12:02:36;9.90;99.90
43607;DHT22;29197;44.788;10.366;2022-12-18T12:05:40;10.10;99.90
43607;DHT22;29197;44.788;10.366;2022-12-18T12:08:42;9.60;99.90
43607;DHT22;29197;44.788;10.366;2022-12-18T12:11:41;9.90;99.90
43607;DHT22;29197;44.788;10.366;2022-12-18T12:14:43;10.50;99.90
43607;DHT22;29197;44.788;10.366;2022-12-18T12:17:39;11.00;99.90
43607;DHT22;29197;44.788;10.366;2022-12-18T12:20:42;11.50;99.90
43607;DHT22;29197;44.788;10.366;2022-12-18T12:23:39;11.70;99.90
43607;DHT22;29197;44.788;10.366;2022-12-18T12:26:33;11.90;99.90
43607;DHT22;29197;44.788;10.366;2022-12-18T12:29:35;11.80;99.90
43607;DHT22;29197;44.788;10.366;2022-12-18T12:32:39;11.40;99.90
43607;DHT22;29197;44.788;10.366;2022-12-18T12:35:43;10.60;99.90
43607;DHT22;29197;44.788;10.366;2022-12-18T12:38:36;10.50;99.90
43607;DHT22;29197;44.788;10.366;2022-12-18T12:41:30;10.40;99.90
43607;DHT22;29197;44.788;10.366;2022-12-18T12:44:40;10.30;99.90
43607;DHT22;29197;44.788;10.366;2022-12-18T12:47:38;9.80;99.90
43607;DHT22;29197;44.788;10.366;2022-12-18T12:50:31;9.40;99.90
43607;DHT22;29197;44.788;10.366;2022-12-18T12:53:28;9.20;99.90
43607;DHT22;29197;44.788;10.366;2022-12-18T12:56:20;9.10;99.90
43607;DHT22;29197;44.788;10.366;2022-12-18T12:59:15;9.40;99.90
43607;DHT22;29197;44.788;10.366;2022-12-18T13:02:15;10.00;99.90
43607;DHT22;29197;44.788;10.366;2022-12-18T13:05:16;10.50;99.90
43607;DHT22;29197;44.788;10.366;2022-12-18T13:08:09;10.80;99.90
43607;DHT22;29197;44.788;10.366;2022-12-18T13:11:01;10.90;99.90
43607;DHT22;29197;44.788;10.366;2022-12-18T13:14:26;11.30;99.90
43607;DHT22;29197;44.788;10.366;2022-12-18T13:17:33;11.50;99.90
43607;DHT22;29197;44.788;10.366;2022-12-18T13:20:22;11.60;99.90
43607;DHT22;29197;44.788;10.366;2022-12-18T13:23:33;11.60;99.90
43607;DHT22;29197;44.788;10.366;2022-12-18T13:26:32;11.60;99.90
43607;DHT22;29197;44.788;10.366;2022-12-18T13:29:41;11.50;99.90
43607;DHT22;29197;44.788;10.366;2022-12-18T13:32:31;11.40;99.90
43607;DHT22;29197;44.788;10.366;2022-12-18T13:35:39;10.80;99.90
43607;DHT22;29197;44.788;10.366;2022-12-18T13:38:33;10.60;99.90
43607;DHT22;29197;44.788;10.366;2022-12-18T13:41:26;9.60;99.90
43607;DHT22;29197;44.788;10.366;2022-12-18T13:44:27;9.40;99.90
43607;DHT22;29197;44.788;10.366;2022-12-18T13:47:27;9.40;99.90
43607;DHT22;29197;44.788;10.366;2022-12-18T13:50:22;9.40;99.90
43607;DHT22;29197;44.788;10.366;2022-12-18T13:53:23;9.50;99.90
43607;DHT22;29197;44.788;10.366;2022-12-18T13:56:15;9.20;99.90
43607;DHT22;29197;44.788;10.366;2022-12-18T13:59:14;9.20;99.90
43607;DHT22;29197;44.788;10.366;2022-12-18T14:02:14;8.80;99.90
43607;DHT22;29197;44.788;10.366;2022-12-18T14:05:04;8.60;99.90
43607;DHT22;29197;44.788;10.366;2022-12-18T14:07:54;8.50;99.90
43607;DHT22;29197;44.788;10.366;2022-12-18T14:10:47;8.70;99.90
43607;DHT22;29197;44.788;10.366;2022-12-18T14:13:41;8.80;99.90
43607;DHT22;29197;44.788;10.366;2022-12-18T14:16:32;8.70;99.90
43607;DHT22;29197;44.788;10.366;2022-12-18T14:19:24;8.70;99.90
43607;DHT22;29197;44.788;10.366;2022-12-18T14:22:18;8.90;99.90
43607;DHT22;29197;44.788;10.366;2022-12-18T14:25:18;8.80;99.90
43607;DHT22;29197;44.788;10.366;2022-12-18T14:28:13;8.70;99.90
43607;DHT22;29197;44.788;10.366;2022-12-18T14:31:03;8.70;99.90
43607;DHT22;29197;44.788;10.366;2022-12-18T14:33:52;8.60;99.90
43607;DHT22;29197;44.788;10.366;2022-12-18T14:36:52;8.60;99.90
43607;DHT22;29197;44.788;10.366;2022-12-18T14:39:52;8.40;99.90
43607;DHT22;29197;44.788;10.366;2022-12-18T14:42:42;8.40;99.90
43607;DHT22;29197;44.788;10.366;2022-12-18T14:45:35;8.30;99.90
43607;DHT22;29197;44.788;10.366;2022-12-18T14:48:37;8.40;99.90
43607;DHT22;29197;44.788;10.366;2022-12-18T14:51:27;8.50;99.90
43607;DHT22;29197;44.788;10.366;2022-12-18T14:54:20;8.60;99.90
43607;DHT22;29197;44.788;10.366;2022-12-18T14:57:20;8.50;99.90
43607;DHT22;29197;44.788;10.366;2022-12-18T15:00:15;8.50;99.90
43607;DHT22;29197;44.788;10.366;2022-12-18T15:03:07;8.50;99.90
43607;DHT22;29197;44.788;10.366;2022-12-18T15:06:15;8.50;99.90
43607;DHT22;29197;44.788;10.366;2022-12-18T15:09:20;8.60;99.90
43607;DHT22;29197;44.788;10.366;2022-12-18T15:12:25;8.40;99.90
43607;DHT22;29197;44.788;10.366;2022-12-18T15:15:43;8.30;99.90
43607;DHT22;29197;44.788;10.366;2022-12-18T15:18:34;8.40;99.90
43607;DHT22;29197;44.788;10.366;2022-12-18T15:21:25;8.40;99.90
43607;DHT22;29197;44.788;10.366;2022-12-18T15:24:27;8.30;99.90
43607;DHT22;29197;44.788;10.366;2022-12-18T15:27:27;8.00;99.90
43607;DHT22;29197;44.788;10.366;2022-12-18T15:30:24;7.90;99.90
43607;DHT22;29197;44.788;10.366;2022-12-18T15:33:23;8.00;99.90
43607;DHT22;29197;44.788;10.366;2022-12-18T15:36:15;8.20;99.90
43607;DHT22;29197;44.788;10.366;2022-12-18T15:39:13;8.40;99.90
43607;DHT22;29197;44.788;10.366;2022-12-18T15:42:03;8.50;99.90
43607;DHT22;29197;44.788;10.366;2022-12-18T15:45:12;8.60;99.90
43607;DHT22;29197;44.788;10.366;2022-12-18T15:48:02;8.60;99.90
43607;DHT22;29197;44.788;10.366;2022-12-18T15:50:52;8.70;99.90
43607;DHT22;29197;44.788;10.366;2022-12-18T15:53:44;8.70;99.90
43607;DHT22;29197;44.788;10.366;2022-12-18T15:56:34;8.70;99.90
43607;DHT22;29197;44.788;10.366;2022-12-18T15:59:43;8.80;99.90
43607;DHT22;29197;44.788;10.366;2022-12-18T16:02:32;8.80;99.90
43607;DHT22;29197;44.788;10.366;2022-12-18T16:05:23;8.80;99.90
43607;DHT22;29197;44.788;10.366;2022-12-18T16:08:13;8.80;99.90
43607;DHT22;29197;44.788;10.366;2022-12-18T16:11:02;8.80;99.90
43607;DHT22;29197;44.788;10.366;2022-12-18T16:13:52;8.80;99.90
43607;DHT22;29197;44.788;10.366;2022-12-18T16:16:43;8.80;99.90
43607;DHT22;29197;44.788;10.366;2022-12-18T16:19:32;8.70;99.90
43607;DHT22;29197;44.788;10.366;2022-12-18T16:22:23;8.80;99.90
43607;DHT22;29197;44.788;10.366;2022-12-18T16:25:18;8.80;99.90
43607;DHT22;29197;44.788;10.366;2022-12-18T16:28:11;8.70;99.90
43607;DHT22;29197;44.788;10.366;2022-12-18T16:31:01;8.70;99.90
43607;DHT22;29197;44.788;10.366;2022-12-18T16:34:09;8.70;99.90
43607;DHT22;29197;44.788;10.366;2022-12-18T16:37:00;8.70;99.90
43607;DHT22;29197;44.788;10.366;2022-12-18T16:39:52;8.70;99.90
43607;DHT22;29197;44.788;10.366;2022-12-18T16:42:43;8.70;99.90
43607;DHT22;29197;44.788;10.366;2022-12-18T16:45:32;8.70;99.90
43607;DHT22;29197;44.788;10.366;2022-12-18T16:48:21;8.70;99.90
43607;DHT22;29197;44.788;10.366;2022-12-18T16:51:12;8.80;99.90
43607;DHT22;29197;44.788;10.366;2022-12-18T16:54:02;8.80;99.90
43607;DHT22;29197;44.788;10.366;2022-12-18T16:56:58;8.70;99.90
43607;DHT22;29197;44.788;10.366;2022-12-18T16:59:48;8.80;99.90
43607;DHT22;29197;44.788;10.366;2022-12-18T17:02:38;8.80;99.90
43607;DHT22;29197;44.788;10.366;2022-12-18T17:05:27;8.80;99.90
43607;DHT22;29197;44.788;10.366;2022-12-18T17:08:18;8.80;99.90
43607;DHT22;29197;44.788;10.366;2022-12-18T17:11:07;8.80;99.90
43607;DHT22;29197;44.788;10.366;2022-12-18T17:13:57;8.80;99.90
43607;DHT22;29197;44.788;10.366;2022-12-18T17:16:47;8.70;99.90
43607;DHT22;29197;44.788;10.366;2022-12-18T17:19:57;8.70;99.90
43607;DHT22;29197;44.788;10.366;2022-12-18T17:22:46;8.70;99.90
43607;DHT22;29197;44.788;10.366;2022-12-18T17:25:40;8.70;99.90
43607;DHT22;29197;44.788;10.366;2022-12-18T17:28:30;8.70;99.90
43607;DHT22;29197;44.788;10.366;2022-12-18T17:31:22;8.70;99.90
43607;DHT22;29197;44.788;10.366;2022-12-18T17:34:12;8.70;99.90
43607;DHT22;29197;44.788;10.366;2022-12-18T17:37:01;8.60;99.90
43607;DHT22;29197;44.788;10.366;2022-12-18T17:39:50;8.60;99.90
43607;DHT22;29197;44.788;10.366;2022-12-18T17:42:42;8.60;99.90
43607;DHT22;29197;44.788;10.366;2022-12-18T17:45:34;8.60;99.90
43607;DHT22;29197;44.788;10.366;2022-12-18T17:48:24;8.60;99.90
43607;DHT22;29197;44.788;10.366;2022-12-18T17:51:15;8.60;99.90
43607;DHT22;29197;44.788;10.366;2022-12-18T17:54:04;8.60;99.90
43607;DHT22;29197;44.788;10.366;2022-12-18T17:56:54;8.60;99.90
43607;DHT22;29197;44.788;10.366;2022-12-18T17:59:45;8.70;99.90
43607;DHT22;29197;44.788;10.366;2022-12-18T18:02:34;8.70;99.90
43607;DHT22;29197;44.788;10.366;2022-12-18T18:05:24;8.60;99.90
43607;DHT22;29197;44.788;10.366;2022-12-18T18:08:14;8.60;99.90
43607;DHT22;29197;44.788;10.366;2022-12-18T18:11:04;8.60;99.90
43607;DHT22;29197;44.788;10.366;2022-12-18T18:14:13;8.60;99.90
43607;DHT22;29197;44.788;10.366;2022-12-18T18:17:04;8.60;99.90
43607;DHT22;29197;44.788;10.366;2022-12-18T18:19:54;8.60;99.90
43607;DHT22;29197;44.788;10.366;2022-12-18T18:22:43;8.50;99.90
43607;DHT22;29197;44.788;10.366;2022-12-18T18:25:35;8.50;99.90
43607;DHT22;29197;44.788;10.366;2022-12-18T18:28:24;8.30;99.90
43607;DHT22;29197;44.788;10.366;2022-12-18T18:31:13;8.10;99.90
43607;DHT22;29197;44.788;10.366;2022-12-18T18:34:04;7.80;99.90
43607;DHT22;29197;44.788;10.366;2022-12-18T18:36:54;7.60;99.90
43607;DHT22;29197;44.788;10.366;2022-12-18T18:39:43;7.70;99.90
43607;DHT22;29197;44.788;10.366;2022-12-18T18:42:32;7.90;99.90
43607;DHT22;29197;44.788;10.366;2022-12-18T18:45:22;7.90;99.90
43607;DHT22;29197;44.788;10.366;2022-12-18T18:48:12;8.00;99.90
43607;DHT22;29197;44.788;10.366;2022-12-18T18:51:06;8.00;99.90
43607;DHT22;29197;44.788;10.366;2022-12-18T18:53:56;8.10;99.90
43607;DHT22;29197;44.788;10.366;2022-12-18T18:59:56;8.20;99.90
43607;DHT22;29197;44.788;10.366;2022-12-18T19:02:46;8.20;99.90
43607;DHT22;29197;44.788;10.366;2022-12-18T19:05:35;8.20;99.90
43607;DHT22;29197;44.788;10.366;2022-12-18T19:08:34;8.20;99.90
43607;DHT22;29197;44.788;10.366;2022-12-18T19:11:23;8.30;99.90
43607;DHT22;29197;44.788;10.366;2022-12-18T19:14:31;8.40;99.90
43607;DHT22;29197;44.788;10.366;2022-12-18T19:17:20;8.50;99.90
43607;DHT22;29197;44.788;10.366;2022-12-18T19:20:16;8.40;99.90
43607;DHT22;29197;44.788;10.366;2022-12-18T19:23:05;8.20;99.90
43607;DHT22;29197;44.788;10.366;2022-12-18T19:25:58;8.20;99.90
43607;DHT22;29197;44.788;10.366;2022-12-18T19:29:09;8.00;99.90
43607;DHT22;29197;44.788;10.366;2022-12-18T19:31:59;7.90;99.90
43607;DHT22;29197;44.788;10.366;2022-12-18T19:34:48;7.90;99.90
43607;DHT22;29197;44.788;10.366;2022-12-18T19:37:38;7.90;99.90
43607;DHT22;29197;44.788;10.366;2022-12-18T19:40:27;7.90;99.90
43607;DHT22;29197;44.788;10.366;2022-12-18T19:43:18;8.00;99.90
43607;DHT22;29197;44.788;10.366;2022-12-18T19:46:11;7.80;99.90
43607;DHT22;29197;44.788;10.366;2022-12-18T19:49:00;7.50;99.90
43607;DHT22;29197;44.788;10.366;2022-12-18T19:51:50;7.30;99.90
43607;DHT22;29197;44.788;10.366;2022-12-18T19:54:39;7.20;99.90
43607;DHT22;29197;44.788;10.366;2022-12-18T19:57:28;7.00;99.90
43607;DHT22;29197;44.788;10.366;2022-12-18T20:00:21;6.90;99.90
43607;DHT22;29197;44.788;10.366;2022-12-18T20:03:10;7.10;99.90
43607;DHT22;29197;44.788;10.366;2022-12-18T20:06:19;7.10;99.90
43607;DHT22;29197;44.788;10.366;2022-12-18T20:09:09;7.30;99.90
43607;DHT22;29197;44.788;10.366;2022-12-18T20:11:58;7.50;99.90
43607;DHT22;29197;44.788;10.366;2022-12-18T20:14:48;7.70;99.90
43607;DHT22;29197;44.788;10.366;2022-12-18T20:17:38;7.80;99.90
43607;DHT22;29197;44.788;10.366;2022-12-18T20:20:27;7.80;99.90
43607;DHT22;29197;44.788;10.366;2022-12-18T20:26:06;8.00;99.90
43607;DHT22;29197;44.788;10.366;2022-12-18T20:28:56;8.00;99.90
43607;DHT22;29197;44.788;10.366;2022-12-18T20:31:49;8.00;99.90
43607;DHT22;29197;44.788;10.366;2022-12-18T20:34:40;8.00;99.90
43607;DHT22;29197;44.788;10.366;2022-12-18T20:37:34;8.10;99.90
43607;DHT22;29197;44.788;10.366;2022-12-18T20:40:31;8.10;99.90
43607;DHT22;29197;44.788;10.366;2022-12-18T20:43:25;8.20;99.90
43607;DHT22;29197;44.788;10.366;2022-12-18T20:46:16;8.20;99.90
43607;DHT22;29197;44.788;10.366;2022-12-18T20:49:06;8.30;99.90
43607;DHT22;29197;44.788;10.366;2022-12-18T20:51:57;8.30;99.90
43607;DHT22;29197;44.788;10.366;2022-12-18T20:54:46;8.30;99.90
43607;DHT22;29197;44.788;10.366;2022-12-18T20:57:42;8.30;99.90
43607;DHT22;29197;44.788;10.366;2022-12-18T21:00:36;8.40;99.90
43607;DHT22;29197;44.788;10.366;2022-12-18T21:03:25;8.40;99.90
43607;DHT22;29197;44.788;10.366;2022-12-18T21:06:25;8.30;99.90
43607;DHT22;29197;44.788;10.366;2022-12-18T21:09:17;8.40;99.90
43607;DHT22;29197;44.788;10.366;2022-12-18T21:12:17;8.30;99.90
